Time;durP1;ratioP1;P1;durP2;ratioP2;P2;SDS_P1;SDS_P2;PMS_P1;PMS_P2;Temp;Humidity;BMP_temperature;BMP_pressure;BME280_temperature;BME280_humidity;BME280_pressure;Samples;Min_cycle;Max_cycle;Signal;HPM_P1;HPM_P2
2023/11/10 00:01:17;;;;;;;3.67;3.22;;;;;;;8.77;87.12;96943.66;5076014;28;20387;-70
2023/11/10 00:03:42;;;;;;;3.85;3.45;;;;;;;8.74;86.73;96944.16;5094262;28;20036;-70
2023/11/10 00:06:08;;;;;;;4.60;3.38;;;;;;;8.72;87.56;96940.94;5093960;28;20021;-70
2023/11/10 00:08:33;;;;;;;4.63;3.33;;;;;;;8.68;87.30;96931.81;5096015;28;20144;-70
2023/11/10 00:10:59;;;;;;;3.67;3.38;;;;;;;8.70;86.94;96938.53;5080011;28;20035;-70
2023/11/10 00:13:24;;;;;;;3.55;3.25;;;;;;;8.69;86.87;96942.28;5098572;28;20039;-71
2023/11/10 00:15:50;;;;;;;4.15;3.80;;;;;;;8.67;87.32;96927.50;5098382;28;20577;-70
2023/11/10 00:18:16;;;;;;;4.32;3.92;;;;;;;8.69;86.83;96923.47;5098359;28;20032;-70
2023/11/10 00:20:42;;;;;;;4.50;4.10;;;;;;;8.72;87.11;96919.47;5098085;28;20024;-70
2023/11/10 00:23:10;;;;;;;5.25;3.80;;;;;;;8.70;86.81;96924.28;5079879;28;20411;-70
2023/11/10 00:25:36;;;;;;;4.80;4.30;;;;;;;8.70;87.01;96916.25;5079593;28;20024;-70
2023/11/10 00:28:03;;;;;;;4.60;4.20;;;;;;;8.71;86.49;96915.16;5098286;28;20055;-71
2023/11/10 00:30:28;;;;;;;5.13;4.63;;;;;;;8.71;86.97;96923.22;5066616;28;20020;-71
2023/11/10 00:32:54;;;;;;;5.15;4.68;;;;;;;8.67;87.01;96914.88;5060486;28;20024;-73
2023/11/10 00:35:19;;;;;;;5.63;5.13;;;;;;;8.69;87.22;96919.97;5098037;28;20027;-72
2023/11/10 00:37:45;;;;;;;6.43;4.65;;;;;;;8.72;86.64;96919.47;5079720;28;20063;-73
2023/11/10 00:40:11;;;;;;;5.45;4.95;;;;;;;8.75;86.28;96927.00;5099449;28;20676;-73
2023/11/10 00:42:36;;;;;;;5.32;4.82;;;;;;;8.71;86.26;96924.03;5097895;28;20506;-72
2023/11/10 00:45:02;;;;;;;5.10;4.60;;;;;;;8.74;86.38;96926.19;5097235;28;20020;-70
2023/11/10 00:47:28;;;;;;;6.40;4.53;;;;;;;8.76;86.35;96937.47;5111539;28;20044;-72
2023/11/10 00:49:53;;;;;;;6.00;4.97;;;;;;;8.74;86.66;96934.25;5073552;28;20368;-72
2023/11/10 00:52:20;;;;;;;5.60;5.07;;;;;;;8.65;86.92;96918.91;5065217;28;20154;-72
2023/11/10 00:54:46;;;;;;;5.78;5.18;;;;;;;8.76;87.11;96931.28;5059579;28;20051;-72
2023/11/10 00:57:12;;;;;;;5.85;5.35;;;;;;;8.73;86.96;96921.06;5075625;28;20040;-73
2023/11/10 00:59:38;;;;;;;6.72;6.13;;;;;;;8.71;87.53;96907.09;5075993;28;20032;-70
2023/11/10 01:02:03;;;;;;;8.27;6.13;;;;;;;8.69;87.69;96893.16;5075772;28;20032;-73
2023/11/10 01:04:29;;;;;;;7.03;6.32;;;;;;;8.59;87.58;96852.88;5072178;28;20444;-71
2023/11/10 01:06:54;;;;;;;7.63;6.82;;;;;;;8.56;88.14;96880.25;5095772;28;20498;-73
2023/11/10 01:09:22;;;;;;;7.80;6.28;;;;;;;8.55;88.20;96892.03;5059092;28;20028;-74
2023/11/10 01:11:48;;;;;;;7.18;5.80;;;;;;;8.51;88.19;96881.03;5075342;28;20039;-74
2023/11/10 01:14:13;;;;;;;6.85;6.10;;;;;;;8.52;88.72;96888.00;5075664;28;20724;-72
2023/11/10 01:16:38;;;;;;;7.68;6.28;;;;;;;8.50;88.82;96889.31;5075196;28;20081;-74
2023/11/10 01:19:04;;;;;;;6.72;5.97;;;;;;;8.49;89.14;96899.28;5075466;28;20027;-73
2023/11/10 01:21:29;;;;;;;6.70;6.00;;;;;;;8.47;89.47;96889.88;5093410;28;20388;-72
2023/11/10 01:23:55;;;;;;;6.80;6.20;;;;;;;8.55;88.63;96898.22;5093535;28;20060;-72
2023/11/10 01:26:21;;;;;;;6.18;5.57;;;;;;;8.55;89.12;96897.41;5058185;28;20043;-73
2023/11/10 01:28:46;;;;;;;6.78;6.18;;;;;;;8.53;89.03;96886.13;5075278;28;20031;-72
2023/11/10 01:31:13;;;;;;;8.82;6.22;;;;;;;8.55;88.87;96884.78;5093118;28;20085;-73
2023/11/10 01:33:38;;;;;;;8.60;5.88;;;;;;;8.53;89.67;96891.50;5075228;28;20020;-72
2023/11/10 01:36:04;;;;;;;6.40;5.80;;;;;;;8.54;89.05;96890.44;5058149;28;20040;-72
2023/11/10 01:38:29;;;;;;;6.25;5.45;;;;;;;8.50;89.03;96881.28;5075227;28;20642;-72
2023/11/10 01:40:54;;;;;;;7.18;6.32;;;;;;;8.50;89.98;96895.50;5093120;28;20042;-72
2023/11/10 01:43:20;;;;;;;7.05;5.80;;;;;;;8.47;90.11;96893.34;5058311;28;20074;-72
2023/11/10 01:45:46;;;;;;;6.28;5.78;;;;;;;8.50;89.56;96889.31;5058128;28;20063;-72
2023/11/10 01:48:13;;;;;;;6.40;5.80;;;;;;;8.52;89.31;96892.56;5058395;28;20031;-71
2023/11/10 01:50:40;;;;;;;6.50;5.75;;;;;;;8.50;89.83;96900.88;5062091;28;20515;-71
2023/11/10 01:53:08;;;;;;;6.35;5.78;;;;;;;8.54;89.66;96901.16;5055149;28;20031;-70
2023/11/10 01:55:35;;;;;;;6.45;5.75;;;;;;;8.51;90.21;96896.31;5068157;28;20040;-71
2023/11/10 01:58:01;;;;;;;6.47;5.80;;;;;;;8.49;89.39;96890.41;5058190;28;20070;-71
2023/11/10 02:00:30;;;;;;;6.80;6.20;;;;;;;8.41;89.88;96875.63;5058073;28;20453;-72
2023/11/10 02:03:03;;;;;;;6.00;5.50;;;;;;;8.50;89.83;96889.31;5057912;28;20020;-71
2023/11/10 02:05:29;;;;;;;6.68;5.43;;;;;;;8.49;89.64;96885.03;5092429;28;20066;-72
2023/11/10 02:07:54;;;;;;;6.50;5.78;;;;;;;8.42;89.85;96871.06;5058087;28;20060;-70
2023/11/10 02:10:20;;;;;;;7.72;5.90;;;;;;;8.45;89.87;96875.91;5058070;28;20479;-72
2023/11/10 02:12:53;;;;;;;9.20;5.85;;;;;;;8.38;89.76;96859.25;5074456;28;20387;-71
2023/11/10 02:15:18;;;;;;;6.15;5.55;;;;;;;8.31;90.31;96860.28;5057855;28;20085;-72
2023/11/10 02:17:43;;;;;;;6.45;5.80;;;;;;;8.43;90.33;96878.84;5074205;28;20430;-72
2023/11/10 02:20:09;;;;;;;6.57;5.68;;;;;;;8.42;89.82;96876.44;5092561;28;20399;-72
2023/11/10 02:22:34;;;;;;;8.02;6.20;;;;;;;8.40;90.26;96867.84;5074023;28;20023;-71
2023/11/10 02:25:02;;;;;;;7.55;5.78;;;;;;;8.41;90.06;96856.03;5056706;28;20032;-70
2023/11/10 02:27:28;;;;;;;6.82;6.13;;;;;;;8.41;89.96;96859.53;5067124;28;20115;-69
2023/11/10 02:29:53;;;;;;;7.30;6.13;;;;;;;8.41;90.12;96864.06;5083784;28;20115;-71
2023/11/10 02:32:19;;;;;;;7.03;5.85;;;;;;;8.36;90.30;96862.19;5073636;28;20391;-70
2023/11/10 02:34:45;;;;;;;6.38;5.80;;;;;;;8.39;90.28;96855.50;5057551;28;20561;-70
2023/11/10 02:37:13;;;;;;;7.53;6.10;;;;;;;8.37;89.96;96853.09;5083789;28;20115;-70
2023/11/10 02:39:38;;;;;;;7.07;6.00;;;;;;;8.37;90.45;96869.19;5094233;28;20037;-70
2023/11/10 02:42:04;;;;;;;7.22;6.53;;;;;;;8.32;90.53;96867.28;5112327;28;20106;-69
2023/11/10 02:44:30;;;;;;;7.13;6.40;;;;;;;8.33;90.51;96868.09;5095549;28;20075;-70
2023/11/10 02:46:55;;;;;;;7.07;6.32;;;;;;;8.36;90.49;96856.81;5073512;28;20016;-69
2023/11/10 02:49:20;;;;;;;7.40;6.70;;;;;;;8.31;90.45;96862.16;5093999;28;20043;-70
2023/11/10 02:51:46;;;;;;;6.82;6.10;;;;;;;8.31;90.66;96854.13;5081940;28;20030;-70
2023/11/10 02:54:12;;;;;;;7.35;6.55;;;;;;;8.24;90.04;96843.59;5076359;28;20040;-70
2023/11/10 02:56:38;;;;;;;8.35;6.65;;;;;;;8.33;89.85;96868.88;5084412;28;20034;-71
2023/11/10 02:59:04;;;;;;;7.25;6.53;;;;;;;8.31;89.97;96854.94;5107993;28;20039;-71
2023/11/10 03:01:29;;;;;;;7.72;6.95;;;;;;;8.31;89.91;96849.56;5067878;28;20016;-70
2023/11/10 03:03:55;;;;;;;7.65;6.43;;;;;;;8.23;90.71;96847.38;5087250;28;20039;-70
2023/11/10 03:06:20;;;;;;;7.10;6.50;;;;;;;8.11;90.65;96828.00;5082241;28;20114;-70
2023/11/10 03:08:45;;;;;;;7.63;6.85;;;;;;;8.25;90.68;96853.28;5096324;28;20518;-71
2023/11/10 03:11:11;;;;;;;6.90;6.30;;;;;;;8.25;90.46;96850.59;5065497;28;20506;-70
2023/11/10 03:13:40;;;;;;;7.82;7.03;;;;;;;8.28;90.39;96842.03;5094012;28;20050;-71
2023/11/10 03:16:06;;;;;;;6.95;6.25;;;;;;;8.27;89.91;96840.44;5084473;28;20016;-72
2023/11/10 03:18:32;;;;;;;7.50;6.70;;;;;;;8.27;90.47;96834.25;5105378;28;20032;-72
2023/11/10 03:21:00;;;;;;;9.15;7.38;;;;;;;8.23;90.04;96828.59;5073253;28;20450;-71
2023/11/10 03:23:26;;;;;;;8.30;7.43;;;;;;;8.29;90.29;96822.19;5089735;28;20019;-71
2023/11/10 03:25:51;;;;;;;8.18;7.38;;;;;;;8.24;90.14;96822.16;5076495;28;20313;-69
2023/11/10 03:28:16;;;;;;;9.20;8.20;;;;;;;8.27;90.31;96821.66;5080160;28;20082;-69
2023/11/10 03:30:42;;;;;;;8.70;7.80;;;;;;;8.28;89.82;96823.25;5083451;28;20472;-70
2023/11/10 03:33:07;;;;;;;8.73;7.82;;;;;;;8.25;90.26;96829.13;5085488;28;20039;-70
2023/11/10 03:35:32;;;;;;;9.55;8.23;;;;;;;8.25;89.96;96823.78;5101729;28;20024;-70
2023/11/10 03:37:58;;;;;;;8.63;7.78;;;;;;;8.26;90.27;96825.41;5094171;28;20032;-70
2023/11/10 03:40:25;;;;;;;10.70;8.00;;;;;;;8.23;90.27;96831.28;5084429;28;20137;-69
2023/11/10 03:42:50;;;;;;;9.02;8.13;;;;;;;8.21;90.46;96837.97;5093928;28;20085;-70
2023/11/10 03:45:15;;;;;;;9.57;8.65;;;;;;;8.20;90.40;96837.16;5115768;28;20031;-70
2023/11/10 03:47:41;;;;;;;9.15;8.35;;;;;;;8.20;90.03;96833.66;5099334;28;20039;-71
2023/11/10 03:50:06;;;;;;;9.13;8.23;;;;;;;8.25;89.81;96839.88;5077283;28;20031;-72
2023/11/10 03:52:32;;;;;;;8.85;7.80;;;;;;;8.27;90.26;96821.66;5107468;28;20442;-72
2023/11/10 03:54:58;;;;;;;9.13;8.23;;;;;;;8.25;89.59;96829.13;5095263;28;20032;-72
2023/11/10 03:57:23;;;;;;;9.18;8.23;;;;;;;8.26;90.33;96836.13;5095057;28;20415;-72
2023/11/10 03:59:48;;;;;;;9.00;8.13;;;;;;;8.29;89.69;96829.44;5095280;28;20028;-71
2023/11/10 04:02:14;;;;;;;9.52;8.43;;;;;;;8.27;90.05;96827.03;5090526;28;20036;-72
2023/11/10 04:04:40;;;;;;;11.15;9.00;;;;;;;8.28;89.89;96822.47;5077083;28;20081;-73
2023/11/10 04:07:06;;;;;;;11.02;8.48;;;;;;;8.29;89.84;96824.88;5094684;28;20031;-73
2023/11/10 04:09:33;;;;;;;9.10;8.20;;;;;;;8.30;89.56;96825.69;5060422;28;20031;-72
2023/11/10 04:11:59;;;;;;;9.73;8.70;;;;;;;8.31;90.18;96829.97;5077087;28;20078;-73
2023/11/10 04:14:25;;;;;;;10.88;9.73;;;;;;;8.24;90.19;96826.69;5060117;28;20047;-72
2023/11/10 04:16:50;;;;;;;10.05;9.15;;;;;;;8.29;90.24;96830.25;5090504;28;20089;-72
2023/11/10 04:19:16;;;;;;;11.20;9.48;;;;;;;8.33;89.96;96836.69;5103174;28;20023;-71
2023/11/10 04:21:41;;;;;;;10.35;8.80;;;;;;;8.35;89.99;96831.09;5096713;28;20093;-71
2023/11/10 04:24:07;;;;;;;9.40;8.38;;;;;;;8.32;89.58;96819.00;5088959;28;20042;-71
2023/11/10 04:26:32;;;;;;;10.38;9.32;;;;;;;8.19;90.24;96808.72;5087492;28;20028;-72
2023/11/10 04:28:58;;;;;;;10.93;9.52;;;;;;;8.30;90.07;96826.50;5112167;28;20399;-72
2023/11/10 04:31:24;;;;;;;9.30;8.40;;;;;;;8.31;90.70;96827.28;5062991;28;20036;-72
2023/11/10 04:33:50;;;;;;;7.43;6.70;;;;;;;8.16;89.99;96825.34;5092451;28;20069;-73
2023/11/10 04:36:15;;;;;;;10.75;9.65;;;;;;;8.24;89.82;96822.16;5088665;28;20041;-71
2023/11/10 04:38:43;;;;;;;9.88;8.20;;;;;;;8.30;90.48;96821.16;5056254;28;20031;-72
2023/11/10 04:41:09;;;;;;;8.80;7.90;;;;;;;8.30;89.72;96815.78;5067634;28;20032;-70
2023/11/10 04:43:34;;;;;;;12.63;10.10;;;;;;;8.30;90.09;96813.09;5099650;28;20043;-71
2023/11/10 04:46:04;;;;;;;11.55;9.98;;;;;;;8.32;90.01;96813.63;5093783;28;20035;-72
2023/11/10 04:48:29;;;;;;;10.73;9.63;;;;;;;8.26;90.42;96801.25;5085213;28;20080;-72
2023/11/10 04:50:54;;;;;;;11.73;9.60;;;;;;;8.29;90.35;96811.47;5097745;28;20111;-73
2023/11/10 04:53:20;;;;;;;10.52;9.27;;;;;;;8.32;89.95;96815.50;5084237;28;20024;-72
2023/11/10 04:55:45;;;;;;;11.52;9.63;;;;;;;8.30;90.28;96810.41;5093349;28;20373;-72
2023/11/10 04:58:10;;;;;;;11.75;10.25;;;;;;;8.23;90.44;96809.81;5094902;28;20032;-72
2023/11/10 05:00:36;;;;;;;13.35;11.07;;;;;;;8.29;90.25;96813.34;5114440;28;20019;-70
2023/11/10 05:03:06;;;;;;;11.75;10.50;;;;;;;8.31;90.31;96809.34;5096147;28;20031;-70
2023/11/10 05:05:32;;;;;;;10.98;9.88;;;;;;;8.32;90.15;96808.28;5096589;28;20575;-71
2023/11/10 05:07:58;;;;;;;14.60;11.05;;;;;;;8.33;90.26;96809.09;5096243;28;20052;-71
2023/11/10 05:10:24;;;;;;;15.20;11.43;;;;;;;8.22;90.55;96786.75;5114272;28;20032;-71
2023/11/10 05:12:49;;;;;;;11.82;10.65;;;;;;;8.29;90.50;96798.06;5114277;28;20019;-71
2023/11/10 05:15:14;;;;;;;13.88;11.35;;;;;;;8.30;90.44;96798.88;5114217;28;20066;-71
2023/11/10 05:17:44;;;;;;;14.40;10.70;;;;;;;8.32;90.27;96797.53;5113971;28;20015;-71
2023/11/10 05:20:13;;;;;;;12.38;11.05;;;;;;;8.32;90.74;96794.88;5096914;28;20042;-72
2023/11/10 05:22:40;;;;;;;12.50;11.20;;;;;;;8.33;90.56;96799.13;5070667;28;20024;-71
2023/11/10 05:25:12;;;;;;;10.60;9.50;;;;;;;8.31;90.40;96790.56;5076337;28;20096;-71
2023/11/10 05:27:39;;;;;;;12.23;11.02;;;;;;;8.30;90.68;96794.31;5104042;28;20035;-71
2023/11/10 05:30:06;;;;;;;12.27;10.68;;;;;;;8.33;90.99;96793.78;5105961;28;20019;-71
2023/11/10 05:32:32;;;;;;;13.45;10.63;;;;;;;8.32;90.42;96792.19;5084468;28;20028;-71
2023/11/10 05:34:58;;;;;;;12.90;11.30;;;;;;;8.17;90.71;96765.28;5093756;28;20062;-71
2023/11/10 05:37:27;;;;;;;13.77;12.15;;;;;;;8.31;90.54;96785.19;5093577;28;20027;-71
2023/11/10 05:39:53;;;;;;;14.52;11.75;;;;;;;8.31;91.20;96795.91;5075922;28;20036;-71
2023/11/10 05:42:22;;;;;;;14.90;12.68;;;;;;;8.22;90.89;96791.28;5105770;28;20514;-71
2023/11/10 05:44:48;;;;;;;17.35;13.38;;;;;;;8.28;91.10;96799.13;5077349;28;20031;-70
2023/11/10 05:47:14;;;;;;;16.40;14.40;;;;;;;8.31;90.32;96800.47;5076153;28;20036;-72
2023/11/10 05:49:41;;;;;;;17.10;13.65;;;;;;;8.28;91.01;96801.81;5064317;28;20076;-70
2023/11/10 05:52:07;;;;;;;17.92;13.30;;;;;;;8.29;91.30;96803.44;5113702;28;20028;-71
2023/11/10 05:54:32;;;;;;;19.15;15.43;;;;;;;8.31;91.31;96795.09;5095300;28;20027;-71
2023/11/10 05:56:58;;;;;;;17.15;14.10;;;;;;;8.23;91.55;96783.00;5095010;28;20089;-70
2023/11/10 05:59:25;;;;;;;17.65;15.50;;;;;;;8.19;91.22;96792.63;5078246;28;20387;-71
2023/11/10 06:01:50;;;;;;;19.52;16.38;;;;;;;8.22;91.18;96789.44;5095359;28;20483;-71
2023/11/10 06:04:16;;;;;;;22.63;18.88;;;;;;;8.30;91.36;96797.00;5067374;28;20026;-70
2023/11/10 06:06:43;;;;;;;21.08;16.50;;;;;;;8.27;91.62;96794.84;5091632;28;20028;-71
2023/11/10 06:09:09;;;;;;;19.92;15.98;;;;;;;8.27;91.31;96789.47;5074815;28;20402;-71
2023/11/10 06:11:35;;;;;;;19.50;15.60;;;;;;;8.22;91.27;96786.75;5092769;28;20032;-70
2023/11/10 06:14:02;;;;;;;17.67;14.40;;;;;;;8.24;91.39;96789.97;5074442;28;20035;-70
2023/11/10 06:16:28;;;;;;;18.23;12.77;;;;;;;8.25;91.60;96802.31;5074568;28;20040;-71
2023/11/10 06:18:53;;;;;;;14.30;12.55;;;;;;;8.13;91.52;96787.53;5074671;28;20032;-70
2023/11/10 06:21:21;;;;;;;14.52;12.98;;;;;;;8.22;91.85;96793.97;5093022;28;20140;-71
2023/11/10 06:23:49;;;;;;;15.13;12.70;;;;;;;8.22;91.19;96808.19;5075031;28;20024;-71
2023/11/10 06:26:16;;;;;;;15.68;13.35;;;;;;;8.26;91.04;96808.53;5092529;28;20024;-70
2023/11/10 06:28:43;;;;;;;16.35;13.32;;;;;;;8.25;91.20;96817.59;5098713;28;20027;-71
2023/11/10 06:31:09;;;;;;;13.68;12.20;;;;;;;8.14;91.63;96815.97;5074627;28;20499;-71
2023/11/10 06:33:34;;;;;;;15.15;12.00;;;;;;;8.23;91.25;96817.88;5074387;28;20039;-71
2023/11/10 06:36:01;;;;;;;13.43;11.93;;;;;;;8.21;91.31;96811.94;5092115;28;20407;-71
2023/11/10 06:38:26;;;;;;;14.23;11.05;;;;;;;8.24;91.75;96816.78;5092719;28;20031;-70
2023/11/10 06:40:53;;;;;;;17.15;11.45;;;;;;;8.23;91.71;96820.56;5092309;28;20036;-71
2023/11/10 06:43:19;;;;;;;13.27;10.88;;;;;;;8.25;91.02;96818.41;5092615;28;20032;-70
2023/11/10 06:45:45;;;;;;;11.43;9.32;;;;;;;8.25;91.18;96818.41;5092026;28;20039;-72
2023/11/10 06:48:11;;;;;;;10.75;9.60;;;;;;;8.25;91.56;96829.13;5074164;28;20102;-70
2023/11/10 06:50:36;;;;;;;10.95;9.75;;;;;;;8.23;91.54;96827.78;5074412;28;20071;-71
2023/11/10 06:53:02;;;;;;;10.00;8.90;;;;;;;8.24;91.15;96826.69;5091762;28;20031;-70
2023/11/10 06:55:27;;;;;;;11.73;9.68;;;;;;;8.28;90.80;96825.16;5091784;28;20044;-71
2023/11/10 06:57:52;;;;;;;14.02;10.18;;;;;;;8.26;91.53;96838.81;5073678;28;20079;-71
2023/11/10 07:00:18;;;;;;;12.48;9.68;;;;;;;8.27;91.09;96829.72;5057244;28;20032;-71
2023/11/10 07:02:44;;;;;;;10.85;9.35;;;;;;;8.26;91.13;96838.81;5091768;28;20024;-70
2023/11/10 07:05:09;;;;;;;14.75;11.27;;;;;;;8.23;91.12;96833.97;5069791;28;20111;-71
2023/11/10 07:07:38;;;;;;;28.48;19.55;;;;;;;8.19;91.22;96819.44;5066102;28;20024;-71
2023/11/10 07:10:04;;;;;;;36.72;26.27;;;;;;;8.27;91.02;96839.63;5061993;28;20060;-71
2023/11/10 07:12:30;;;;;;;19.55;14.88;;;;;;;8.29;90.97;96835.63;5077799;28;20103;-71
2023/11/10 07:14:56;;;;;;;18.38;12.65;;;;;;;8.32;91.27;96829.72;5073939;28;20089;-71
2023/11/10 07:17:22;;;;;;;43.22;25.63;;;;;;;8.34;91.28;96832.94;5061475;28;20447;-70
2023/11/10 07:19:47;;;;;;;10.77;8.98;;;;;;;8.29;90.75;96819.53;5085215;28;20129;-70
2023/11/10 07:22:13;;;;;;;10.57;9.38;;;;;;;8.37;91.12;96833.50;5073830;28;20102;-71
2023/11/10 07:24:38;;;;;;;9.32;7.75;;;;;;;8.30;91.22;96837.25;5073507;28;20373;-70
2023/11/10 07:27:06;;;;;;;14.40;10.80;;;;;;;8.36;90.49;96835.34;5086920;28;20519;-71
2023/11/10 07:29:36;;;;;;;17.55;14.88;;;;;;;8.37;90.53;96844.22;5075020;28;20096;-70
2023/11/10 07:32:02;;;;;;;20.85;18.60;;;;;;;8.29;91.28;96843.66;5081455;28;20047;-71
2023/11/10 07:34:28;;;;;;;14.55;12.57;;;;;;;8.42;91.03;96854.97;5073533;28;20024;-71
2023/11/10 07:36:54;;;;;;;11.80;9.43;;;;;;;8.34;90.85;96838.31;5073088;28;20488;-72
2023/11/10 07:39:21;;;;;;;10.77;8.10;;;;;;;8.44;90.74;96858.19;5056531;28;20071;-71
2023/11/10 07:41:47;;;;;;;9.25;8.13;;;;;;;8.38;90.50;96859.25;5091391;28;20036;-71
2023/11/10 07:44:12;;;;;;;9.98;7.78;;;;;;;8.43;90.95;96861.94;5089851;28;20078;-71
2023/11/10 07:46:38;;;;;;;9.82;8.82;;;;;;;8.43;90.83;96859.25;5073285;28;20043;-71
2023/11/10 07:49:04;;;;;;;10.85;9.85;;;;;;;8.46;90.61;96867.59;5091387;28;20024;-69
2023/11/10 07:51:29;;;;;;;8.25;7.40;;;;;;;8.49;90.53;96863.59;5056453;28;20032;-72
2023/11/10 07:53:55;;;;;;;8.70;6.50;;;;;;;8.46;90.70;96866.78;5039950;28;20024;-72
2023/11/10 07:56:20;;;;;;;8.70;6.50;;;;;;;8.42;90.70;96863.03;5072266;28;20035;-73
2023/11/10 07:58:46;;;;;;;8.15;6.30;;;;;;;8.40;90.37;96857.94;5091412;28;20432;-72
2023/11/10 08:01:13;;;;;;;8.27;6.47;;;;;;;8.45;90.95;96859.81;5073144;28;20049;-71
2023/11/10 08:03:42;;;;;;;6.32;5.70;;;;;;;8.49;90.54;96866.25;5091343;28;20471;-72
2023/11/10 08:06:09;;;;;;;6.68;5.97;;;;;;;8.46;90.40;96877.50;5086338;28;20032;-71
2023/11/10 08:08:34;;;;;;;7.25;6.55;;;;;;;8.55;90.90;96870.56;5056847;28;20028;-72
2023/11/10 08:11:00;;;;;;;7.93;6.03;;;;;;;8.58;90.55;96865.50;5091713;28;20043;-72
2023/11/10 08:13:25;;;;;;;7.43;6.72;;;;;;;8.63;90.23;96862.81;5091195;28;20044;-70
2023/11/10 08:15:51;;;;;;;7.05;5.90;;;;;;;8.63;90.91;96864.69;5111612;28;20043;-73
2023/11/10 08:18:17;;;;;;;6.18;5.57;;;;;;;8.64;90.56;96859.06;5111544;28;20023;-71
2023/11/10 08:20:42;;;;;;;6.50;5.80;;;;;;;8.62;90.35;96850.47;5111430;28;20075;-73
2023/11/10 08:23:08;;;;;;;6.57;5.82;;;;;;;8.76;90.50;96861.50;5093197;28;20034;-73
2023/11/10 08:25:35;;;;;;;7.50;6.40;;;;;;;8.78;90.93;96865.53;5087494;28;20499;-72
2023/11/10 08:28:04;;;;;;;6.57;5.65;;;;;;;8.80;90.42;96851.84;5064383;28;20016;-73
2023/11/10 08:30:31;;;;;;;7.22;6.32;;;;;;;8.97;90.65;96871.19;5076160;28;20545;-73
2023/11/10 08:32:59;;;;;;;9.43;7.75;;;;;;;9.04;90.25;96869.06;5094223;28;20020;-73
2023/11/10 08:35:25;;;;;;;5.95;5.35;;;;;;;9.09;90.64;96876.31;5076791;28;20063;-72
2023/11/10 08:37:50;;;;;;;6.57;5.18;;;;;;;9.06;90.53;96877.66;5059364;28;20475;-72
2023/11/10 08:40:16;;;;;;;8.43;6.40;;;;;;;8.98;90.25;96873.59;5094567;28;20492;-73
2023/11/10 08:42:41;;;;;;;8.18;6.38;;;;;;;8.98;90.13;96876.28;5076179;28;20020;-74
2023/11/10 08:45:07;;;;;;;7.10;5.13;;;;;;;9.06;90.13;96877.66;5059514;28;20119;-73
2023/11/10 08:47:33;;;;;;;5.85;4.72;;;;;;;9.06;90.37;96888.41;5059037;28;20051;-73
2023/11/10 08:49:58;;;;;;;4.72;4.32;;;;;;;9.09;90.25;96882.50;5076130;28;20070;-73
2023/11/10 08:52:24;;;;;;;5.25;3.50;;;;;;;9.03;90.23;96886.25;5094160;28;20027;-72
2023/11/10 08:54:51;;;;;;;5.43;4.30;;;;;;;8.91;89.97;96869.59;5076335;28;20047;-73
2023/11/10 08:57:16;;;;;;;3.78;3.40;;;;;;;8.99;89.79;96863.69;5074893;28;20024;-72
2023/11/10 08:59:42;;;;;;;3.70;3.40;;;;;;;9.10;89.64;96873.38;5062206;28;20086;-73
2023/11/10 09:02:07;;;;;;;6.40;3.90;;;;;;;9.07;89.56;96879.28;5072015;28;20024;-73
2023/11/10 09:04:32;;;;;;;7.00;5.40;;;;;;;9.08;89.58;96878.19;5097970;28;20032;-73
2023/11/10 09:06:58;;;;;;;6.00;4.07;;;;;;;9.15;89.46;96892.16;5099419;28;20031;-73
2023/11/10 09:09:23;;;;;;;3.53;3.08;;;;;;;9.12;89.08;96879.28;5084034;28;20124;-72
2023/11/10 09:11:49;;;;;;;3.33;2.50;;;;;;;9.13;88.98;96878.19;5093592;28;20055;-73
2023/11/10 09:14:14;;;;;;;4.93;2.83;;;;;;;9.25;88.38;96892.19;5066033;28;20479;-72
2023/11/10 09:16:41;;;;;;;2.90;2.10;;;;;;;9.24;88.57;96879.81;5075284;28;20035;-69
2023/11/10 09:19:06;;;;;;;3.05;2.45;;;;;;;9.31;88.12;96883.03;5093852;28;20040;-74
2023/11/10 09:21:31;;;;;;;4.70;2.25;;;;;;;9.24;87.50;96869.06;5058002;28;20032;-73
2023/11/10 09:23:57;;;;;;;2.70;2.00;;;;;;;9.27;87.88;96890.03;5056038;28;20042;-73
2023/11/10 09:26:22;;;;;;;3.05;2.10;;;;;;;9.29;87.71;96885.19;5091089;28;20024;-73
2023/11/10 09:28:49;;;;;;;2.33;2.13;;;;;;;9.27;87.51;96883.84;5096774;28;20039;-73
2023/11/10 09:31:15;;;;;;;1.85;1.67;;;;;;;9.32;87.19;96890.03;5091307;28;20498;-73
2023/11/10 09:33:40;;;;;;;2.45;1.70;;;;;;;9.19;87.49;96884.41;5073349;28;20028;-73
2023/11/10 09:36:06;;;;;;;2.72;1.60;;;;;;;9.17;87.44;96884.66;5072995;28;20047;-72
2023/11/10 09:38:32;;;;;;;2.00;1.63;;;;;;;9.26;87.35;96888.44;5074595;28;20081;-72
2023/11/10 09:40:57;;;;;;;4.45;1.80;;;;;;;9.31;87.29;96896.47;5058595;28;20056;-73
2023/11/10 09:43:24;;;;;;;3.08;1.67;;;;;;;9.37;86.95;96890.03;5058583;28;20028;-73
2023/11/10 09:45:51;;;;;;;3.53;1.55;;;;;;;9.35;86.21;96876.06;5074749;28;20024;-72
2023/11/10 09:48:18;;;;;;;1.63;1.30;;;;;;;9.46;85.72;96871.50;5093167;28;20404;-72
2023/11/10 09:50:45;;;;;;;1.77;1.20;;;;;;;9.46;84.12;96879.56;5074828;28;20031;-73
2023/11/10 09:53:13;;;;;;;1.90;1.20;;;;;;;9.43;82.92;96888.97;5074873;28;20032;-73
2023/11/10 09:55:38;;;;;;;2.97;1.30;;;;;;;9.34;81.61;96882.50;5074837;28;20028;-72
2023/11/10 09:58:04;;;;;;;2.38;1.10;;;;;;;9.29;81.45;96881.72;5075059;28;20035;-73
2023/11/10 10:00:31;;;;;;;1.98;1.00;;;;;;;9.48;80.23;96880.09;5075005;28;20570;-73
2023/11/10 10:02:56;;;;;;;1.20;0.95;;;;;;;9.48;79.05;96875.53;5074965;28;20056;-72
2023/11/10 10:05:22;;;;;;;1.42;1.00;;;;;;;9.57;79.08;96884.66;5073499;28;20111;-72
2023/11/10 10:07:47;;;;;;;1.40;1.30;;;;;;;9.69;79.04;96871.75;5094674;28;20549;-72
2023/11/10 10:10:14;;;;;;;4.57;1.10;;;;;;;9.77;78.17;96880.34;5111316;28;20054;-72
2023/11/10 10:12:40;;;;;;;1.95;1.05;;;;;;;9.84;77.35;96881.69;5054387;28;20071;-72
2023/11/10 10:15:06;;;;;;;4.13;1.00;;;;;;;9.79;76.80;96867.44;5069877;28;20085;-72
2023/11/10 10:17:33;;;;;;;2.97;1.02;;;;;;;9.85;75.75;96871.75;5074155;28;20484;-73
2023/11/10 10:20:10;;;;;;;2.63;0.85;;;;;;;9.98;76.01;96873.84;5074510;28;20028;-72
2023/11/10 10:22:41;;;;;;;1.45;0.90;;;;;;;10.08;76.27;96863.06;5074329;28;20035;-74
2023/11/10 10:25:07;;;;;;;1.35;0.80;;;;;;;10.03;74.13;96868.47;5056560;28;20491;-73
2023/11/10 10:27:32;;;;;;;2.47;0.82;;;;;;;9.77;73.19;96867.72;5074111;28;20074;-74
2023/11/10 10:29:59;;;;;;;1.15;0.80;;;;;;;10.04;73.83;96861.97;5100646;28;20577;-75
2023/11/10 10:32:24;;;;;;;2.08;0.90;;;;;;;9.90;73.07;96860.94;5074047;28;20020;-75
2023/11/10 10:34:50;;;;;;;2.33;1.38;;;;;;;9.84;73.17;96852.09;5091145;28;20135;-74
2023/11/10 10:37:17;;;;;;;1.30;0.82;;;;;;;9.81;73.12;96862.59;5091902;28;20027;-74
2023/11/10 10:39:44;;;;;;;3.15;0.80;;;;;;;9.62;72.77;96865.84;5073169;28;20056;-74
2023/11/10 10:42:14;;;;;;;1.38;0.70;;;;;;;9.55;71.86;96867.19;5073868;28;20036;-72
2023/11/10 10:44:42;;;;;;;0.80;0.80;;;;;;;9.49;72.86;96861.03;5073377;28;20042;-74
2023/11/10 10:47:08;;;;;;;1.02;0.70;;;;;;;9.53;72.07;96872.84;5068537;28;20019;-74
2023/11/10 10:49:34;;;;;;;1.88;0.90;;;;;;;9.57;72.37;96857.78;5081191;28;20027;-74
2023/11/10 10:52:00;;;;;;;3.05;0.90;;;;;;;9.66;72.43;96866.13;5073527;28;20093;-75
2023/11/10 10:54:26;;;;;;;1.52;0.80;;;;;;;9.70;71.93;96873.38;5079029;28;20044;-74
2023/11/10 10:56:52;;;;;;;1.63;0.70;;;;;;;9.73;72.01;96861.28;5085280;28;20022;-74
2023/11/10 10:59:18;;;;;;;1.95;0.90;;;;;;;9.71;72.30;96864.22;5076143;28;20028;-75
2023/11/10 11:01:44;;;;;;;4.15;1.13;;;;;;;9.74;71.46;96868.25;5073791;28;20020;-71
2023/11/10 11:04:34;;;;;;;1.27;0.80;;;;;;;9.54;71.61;96863.72;5074089;28;20036;-74
2023/11/10 11:07:48;;;;;;;1.85;1.00;;;;;;;9.42;71.59;96871.25;5073351;28;20067;-74
2023/11/10 11:10:42;;;;;;;0.95;0.80;;;;;;;9.41;71.41;96860.75;5065562;28;20121;-72
2023/11/10 11:13:44;;;;;;;1.90;1.23;;;;;;;9.45;71.66;96865.31;5096576;28;20627;-75
2023/11/10 11:16:37;;;;;;;3.35;0.90;;;;;;;9.54;71.58;96858.34;5086287;28;20044;-73
2023/11/10 11:19:19;;;;;;;1.65;0.80;;;;;;;9.61;70.96;96869.59;5086728;28;20035;-74
2023/11/10 11:21:44;;;;;;;3.38;1.00;;;;;;;9.64;70.05;96852.94;5071787;28;20047;-74
2023/11/10 11:24:10;;;;;;;4.60;1.40;;;;;;;9.66;70.36;96840.03;5072324;28;20020;-73
2023/11/10 11:26:36;;;;;;;1.70;0.93;;;;;;;9.68;70.05;96854.00;5071967;28;20036;-74
2023/11/10 11:29:04;;;;;;;1.67;1.10;;;;;;;9.78;69.91;96841.63;5079234;28;20043;-73
2023/11/10 11:31:46;;;;;;;4.68;1.60;;;;;;;9.88;68.60;96841.59;5056329;28;20143;-74
2023/11/10 11:34:13;;;;;;;1.98;1.20;;;;;;;10.03;68.91;96838.88;5091703;28;20040;-74